sensor_id;sensor_type;location;lat;lon;timestamp;pressure;altitude;pressure_sealevel;temperature;humidity
13015;BME280;6573;57.696;11.950;2023-07-09T00:01:48;102180.66;;;20.58;100.00
13015;BME280;6573;57.696;11.950;2023-07-09T00:04:17;102188.88;;;20.49;100.00
13015;BME280;6573;57.696;11.950;2023-07-09T00:06:49;102187.47;;;20.33;100.00
13015;BME280;6573;57.696;11.950;2023-07-09T00:09:18;102199.78;;;20.40;100.00
13015;BME280;6573;57.696;11.950;2023-07-09T00:11:49;102190.91;;;20.38;100.00
13015;BME280;6573;57.696;11.950;2023-07-09T00:14:18;102184.09;;;20.22;100.00
13015;BME280;6573;57.696;11.950;2023-07-09T00:16:48;102192.91;;;20.27;100.00
13015;BME280;6573;57.696;11.950;2023-07-09T00:19:18;102188.34;;;20.32;100.00
13015;BME280;6573;57.696;11.950;2023-07-09T00:21:48;102189.09;;;20.40;100.00
13015;BME280;6573;57.696;11.950;2023-07-09T00:24:20;102196.38;;;20.32;100.00
13015;BME280;6573;57.696;11.950;2023-07-09T00:26:49;102191.19;;;20.26;100.00
13015;BME280;6573;57.696;11.950;2023-07-09T00:29:18;102192.13;;;20.24;100.00
13015;BME280;6573;57.696;11.950;2023-07-09T00:31:50;102188.50;;;20.26;100.00
13015;BME280;6573;57.696;11.950;2023-07-09T00:34:18;102189.44;;;20.22;100.00
13015;BME280;6573;57.696;11.950;2023-07-09T00:36:48;102193.13;;;20.15;100.00
13015;BME280;6573;57.696;11.950;2023-07-09T00:39:19;102185.13;;;20.15;100.00
13015;BME280;6573;57.696;11.950;2023-07-09T00:41:51;102178.94;;;20.13;100.00
13015;BME280;6573;57.696;11.950;2023-07-09T00:44:26;102188.69;;;20.16;100.00
13015;BME280;6573;57.696;11.950;2023-07-09T00:47:17;102189.56;;;20.16;100.00
13015;BME280;6573;57.696;11.950;2023-07-09T00:49:47;102182.44;;;20.15;100.00
13015;BME280;6573;57.696;11.950;2023-07-09T00:52:27;102194.03;;;20.16;100.00
13015;BME280;6573;57.696;11.950;2023-07-09T00:55:03;102193.13;;;20.15;100.00
13015;BME280;6573;57.696;11.950;2023-07-09T00:57:37;102184.28;;;20.13;100.00
13015;BME280;6573;57.696;11.950;2023-07-09T01:00:11;102180.78;;;20.11;100.00
13015;BME280;6573;57.696;11.950;2023-07-09T01:02:46;102187.16;;;20.04;100.00
13015;BME280;6573;57.696;11.950;2023-07-09T01:05:17;102191.50;;;20.08;100.00
13015;BME280;6573;57.696;11.950;2023-07-09T01:07:47;102191.63;;;20.02;100.00
13015;BME280;6573;57.696;11.950;2023-07-09T01:10:16;102195.31;;;19.95;100.00
13015;BME280;6573;57.696;11.950;2023-07-09T01:12:47;102198.97;;;19.91;100.00
13015;BME280;6573;57.696;11.950;2023-07-09T01:15:17;102196.50;;;19.80;100.00
13015;BME280;6573;57.696;11.950;2023-07-09T01:17:49;102181.56;;;19.72;100.00
13015;BME280;6573;57.696;11.950;2023-07-09T01:20:21;102190.28;;;19.80;100.00
13015;BME280;6573;57.696;11.950;2023-07-09T01:22:51;102191.53;;;19.61;100.00
13015;BME280;6573;57.696;11.950;2023-07-09T01:25:24;102190.97;;;19.44;100.00
13015;BME280;6573;57.696;11.950;2023-07-09T01:27:52;102187.41;;;19.45;100.00
13015;BME280;6573;57.696;11.950;2023-07-09T01:30:28;102190.91;;;19.47;100.00
13015;BME280;6573;57.696;11.950;2023-07-09T01:32:59;102188.06;;;19.57;100.00
13015;BME280;6573;57.696;11.950;2023-07-09T01:35:33;102197.72;;;19.63;100.00
13015;BME280;6573;57.696;11.950;2023-07-09T01:38:05;102192.56;;;19.54;100.00
13015;BME280;6573;57.696;11.950;2023-07-09T01:40:36;102190.06;;;19.45;100.00
13015;BME280;6573;57.696;11.950;2023-07-09T01:43:05;102182.88;;;19.48;100.00
13015;BME280;6573;57.696;11.950;2023-07-09T01:45:35;102187.28;;;19.51;100.00
13015;BME280;6573;57.696;11.950;2023-07-09T01:48:05;102190.91;;;19.47;100.00
13015;BME280;6573;57.696;11.950;2023-07-09T01:50:36;102197.16;;;19.46;100.00
13015;BME280;6573;57.696;11.950;2023-07-09T01:53:10;102146.06;;;19.15;100.00
13015;BME280;6573;57.696;11.950;2023-07-09T01:55:39;102180.41;;;19.34;100.00
13015;BME280;6573;57.696;11.950;2023-07-09T01:58:07;102191.94;;;19.40;100.00
13015;BME280;6573;57.696;11.950;2023-07-09T02:00:35;102201.47;;;19.53;100.00
13015;BME280;6573;57.696;11.950;2023-07-09T02:03:04;102203.00;;;19.66;100.00
13015;BME280;6573;57.696;11.950;2023-07-09T02:05:35;102201.94;;;19.76;100.00
13015;BME280;6573;57.696;11.950;2023-07-09T02:08:04;102197.09;;;19.96;100.00
13015;BME280;6573;57.696;11.950;2023-07-09T02:10:36;102211.34;;;19.95;100.00
13015;BME280;6573;57.696;11.950;2023-07-09T02:13:04;102201.47;;;20.00;100.00
13015;BME280;6573;57.696;11.950;2023-07-09T02:15:32;102205.50;;;19.75;100.00
13015;BME280;6573;57.696;11.950;2023-07-09T02:18:01;102207.72;;;19.52;100.00
13015;BME280;6573;57.696;11.950;2023-07-09T02:20:31;102203.34;;;19.48;100.00
13015;BME280;6573;57.696;11.950;2023-07-09T02:23:01;102206.63;;;19.65;100.00
13015;BME280;6573;57.696;11.950;2023-07-09T02:25:30;102203.72;;;19.77;100.00
13015;BME280;6573;57.696;11.950;2023-07-09T02:28:00;102209.72;;;19.88;100.00
13015;BME280;6573;57.696;11.950;2023-07-09T02:30:28;102213.13;;;19.96;100.00
13015;BME280;6573;57.696;11.950;2023-07-09T02:32:57;102203.44;;;19.90;100.00
13015;BME280;6573;57.696;11.950;2023-07-09T02:35:28;102206.38;;;19.77;100.00
13015;BME280;6573;57.696;11.950;2023-07-09T02:37:56;102202.91;;;19.72;100.00
13015;BME280;6573;57.696;11.950;2023-07-09T02:40:24;102202.25;;;19.59;100.00
13015;BME280;6573;57.696;11.950;2023-07-09T02:42:52;102199.53;;;19.61;100.00
13015;BME280;6573;57.696;11.950;2023-07-09T02:45:25;102197.50;;;19.75;100.00
13015;BME280;6573;57.696;11.950;2023-07-09T02:47:54;102210.06;;;19.70;100.00
13015;BME280;6573;57.696;11.950;2023-07-09T02:50:22;102206.03;;;19.46;100.00
13015;BME280;6573;57.696;11.950;2023-07-09T02:52:50;102208.25;;;19.20;100.00
13015;BME280;6573;57.696;11.950;2023-07-09T02:55:19;102202.22;;;19.07;100.00
13015;BME280;6573;57.696;11.950;2023-07-09T02:57:47;102200.41;;;19.09;100.00
13015;BME280;6573;57.696;11.950;2023-07-09T03:00:16;102207.34;;;19.19;100.00
13015;BME280;6573;57.696;11.950;2023-07-09T03:02:46;102209.09;;;19.20;100.00
13015;BME280;6573;57.696;11.950;2023-07-09T03:05:15;102196.56;;;19.25;100.00
13015;BME280;6573;57.696;11.950;2023-07-09T03:07:43;102203.75;;;19.20;100.00
13015;BME280;6573;57.696;11.950;2023-07-09T03:10:11;102203.03;;;19.11;100.00
13015;BME280;6573;57.696;11.950;2023-07-09T03:12:39;102209.22;;;19.14;100.00
13015;BME280;6573;57.696;11.950;2023-07-09T03:15:08;102210.88;;;19.21;100.00
13015;BME280;6573;57.696;11.950;2023-07-09T03:17:36;102210.91;;;19.18;100.00
13015;BME280;6573;57.696;11.950;2023-07-09T03:20:07;102210.97;;;19.15;100.00
13015;BME280;6573;57.696;11.950;2023-07-09T03:22:36;102209.94;;;19.24;100.00
13015;BME280;6573;57.696;11.950;2023-07-09T03:25:05;102211.72;;;19.25;100.00
13015;BME280;6573;57.696;11.950;2023-07-09T03:27:34;102217.81;;;19.31;100.00
13015;BME280;6573;57.696;11.950;2023-07-09T03:30:02;102214.25;;;19.32;100.00
13015;BME280;6573;57.696;11.950;2023-07-09T03:32:30;102212.78;;;19.13;100.00
13015;BME280;6573;57.696;11.950;2023-07-09T03:34:59;102210.66;;;19.33;100.00
13015;BME280;6573;57.696;11.950;2023-07-09T03:37:29;102206.16;;;19.38;100.00
13015;BME280;6573;57.696;11.950;2023-07-09T03:39:57;102216.00;;;19.33;100.00
13015;BME280;6573;57.696;11.950;2023-07-09T03:42:27;102213.47;;;19.26;100.00
13015;BME280;6573;57.696;11.950;2023-07-09T03:44:56;102218.09;;;19.15;100.00
13015;BME280;6573;57.696;11.950;2023-07-09T03:47:24;102219.06;;;19.08;100.00
13015;BME280;6573;57.696;11.950;2023-07-09T03:49:53;102218.13;;;19.13;100.00
13015;BME280;6573;57.696;11.950;2023-07-09T03:52:21;102214.50;;;19.17;100.00
13015;BME280;6573;57.696;11.950;2023-07-09T03:54:51;102221.69;;;19.12;100.00
13015;BME280;6573;57.696;11.950;2023-07-09T03:57:19;102226.03;;;19.18;100.00
13015;BME280;6573;57.696;11.950;2023-07-09T03:59:47;102220.66;;;19.21;100.00
13015;BME280;6573;57.696;11.950;2023-07-09T04:02:15;102221.53;;;19.21;100.00
13015;BME280;6573;57.696;11.950;2023-07-09T04:04:44;102211.94;;;19.11;100.00
13015;BME280;6573;57.696;11.950;2023-07-09T04:07:12;102223.38;;;19.19;100.00
13015;BME280;6573;57.696;11.950;2023-07-09T04:09:42;102227.66;;;19.29;100.00
13015;BME280;6573;57.696;11.950;2023-07-09T04:12:12;102229.44;;;19.29;100.00
13015;BME280;6573;57.696;11.950;2023-07-09T04:14:40;102217.09;;;19.22;100.00
13015;BME280;6573;57.696;11.950;2023-07-09T04:17:08;102230.41;;;19.23;100.00
13015;BME280;6573;57.696;11.950;2023-07-09T04:19:37;102227.59;;;19.32;100.00
13015;BME280;6573;57.696;11.950;2023-07-09T04:22:05;102223.25;;;19.25;100.00
13015;BME280;6573;57.696;11.950;2023-07-09T04:24:33;102214.44;;;19.20;100.00
13015;BME280;6573;57.696;11.950;2023-07-09T04:27:05;102212.69;;;19.19;100.00
13015;BME280;6573;57.696;11.950;2023-07-09T04:29:37;102224.13;;;19.26;100.00
13015;BME280;6573;57.696;11.950;2023-07-09T04:32:07;102218.75;;;19.29;100.00
13015;BME280;6573;57.696;11.950;2023-07-09T04:34:37;102217.75;;;19.37;100.00
13015;BME280;6573;57.696;11.950;2023-07-09T04:37:06;102212.31;;;19.44;100.00
13015;BME280;6573;57.696;11.950;2023-07-09T04:39:34;102221.88;;;19.57;100.00
13015;BME280;6573;57.696;11.950;2023-07-09T04:42:06;102223.66;;;19.56;100.00
13015;BME280;6573;57.696;11.950;2023-07-09T04:44:39;102226.19;;;19.64;100.00
13015;BME280;6573;57.696;11.950;2023-07-09T04:47:08;102218.28;;;19.59;100.00
13015;BME280;6573;57.696;11.950;2023-07-09T04:49:36;102221.88;;;19.57;100.00
13015;BME280;6573;57.696;11.950;2023-07-09T04:52:06;102224.69;;;19.48;100.00
13015;BME280;6573;57.696;11.950;2023-07-09T04:54:40;102215.63;;;19.58;100.00
13015;BME280;6573;57.696;11.950;2023-07-09T04:57:10;102225.97;;;19.76;100.00
13015;BME280;6573;57.696;11.950;2023-07-09T04:59:41;102226.94;;;19.72;100.00
13015;BME280;6573;57.696;11.950;2023-07-09T05:02:09;102222.47;;;19.74;100.00
13015;BME280;6573;57.696;11.950;2023-07-09T05:04:37;102228.56;;;19.80;100.00
13015;BME280;6573;57.696;11.950;2023-07-09T05:07:06;102228.41;;;19.88;100.00
13015;BME280;6573;57.696;11.950;2023-07-09T05:09:35;102223.75;;;19.99;100.00
13015;BME280;6573;57.696;11.950;2023-07-09T05:12:04;102230.06;;;19.95;100.00
13015;BME280;6573;57.696;11.950;2023-07-09T05:14:35;102237.81;;;20.07;100.00
13015;BME280;6573;57.696;11.950;2023-07-09T05:17:05;102235.94;;;20.12;100.00
13015;BME280;6573;57.696;11.950;2023-07-09T05:19:35;102235.84;;;20.18;100.00
13015;BME280;6573;57.696;11.950;2023-07-09T05:22:06;102241.19;;;20.18;100.00
13015;BME280;6573;57.696;11.950;2023-07-09T05:24:35;102236.03;;;20.09;100.00
13015;BME280;6573;57.696;11.950;2023-07-09T05:27:04;102243.06;;;20.13;100.00
13015;BME280;6573;57.696;11.950;2023-07-09T05:29:32;102243.91;;;20.17;100.00
13015;BME280;6573;57.696;11.950;2023-07-09T05:32:01;102243.97;;;20.12;100.00
13015;BME280;6573;57.696;11.950;2023-07-09T05:34:31;102241.13;;;20.24;100.00
13015;BME280;6573;57.696;11.950;2023-07-09T05:36:59;102250.75;;;20.31;100.00
13015;BME280;6573;57.696;11.950;2023-07-09T05:39:28;102239.03;;;20.38;100.00
13015;BME280;6573;57.696;11.950;2023-07-09T05:41:56;102237.00;;;20.49;100.00
13015;BME280;6573;57.696;11.950;2023-07-09T05:44:24;102231.41;;;20.61;100.00
13015;BME280;6573;57.696;11.950;2023-07-09T05:46:53;102233.72;;;20.77;100.00
13015;BME280;6573;57.696;11.950;2023-07-09T05:49:21;102229.31;;;20.76;100.00
13015;BME280;6573;57.696;11.950;2023-07-09T05:51:51;102230.09;;;20.81;100.00
13015;BME280;6573;57.696;11.950;2023-07-09T05:54:19;102230.03;;;20.82;100.00
13015;BME280;6573;57.696;11.950;2023-07-09T05:56:48;102230.63;;;20.95;100.00
13015;BME280;6573;57.696;11.950;2023-07-09T05:59:16;102207.84;;;20.79;100.00
13015;BME280;6573;57.696;11.950;2023-07-09T06:01:44;102221.63;;;20.99;100.00
13015;BME280;6573;57.696;11.950;2023-07-09T06:04:15;102219.63;;;21.10;100.00
13015;BME280;6573;57.696;11.950;2023-07-09T06:06:44;102216.09;;;21.08;100.00
13015;BME280;6573;57.696;11.950;2023-07-09T06:09:14;102219.19;;;21.26;100.00
13015;BME280;6573;57.696;11.950;2023-07-09T06:11:49;102211.78;;;21.38;100.00
13015;BME280;6573;57.696;11.950;2023-07-09T06:14:18;102217.59;;;21.55;100.00
13015;BME280;6573;57.696;11.950;2023-07-09T06:16:46;102213.25;;;21.49;100.00
13015;BME280;6573;57.696;11.950;2023-07-09T06:19:15;102217.50;;;21.58;100.00
13015;BME280;6573;57.696;11.950;2023-07-09T06:21:44;102215.34;;;21.72;100.00
13015;BME280;6573;57.696;11.950;2023-07-09T06:24:14;102216.16;;;21.75;100.00
13015;BME280;6573;57.696;11.950;2023-07-09T06:26:42;102199.31;;;21.70;100.00
13015;BME280;6573;57.696;11.950;2023-07-09T06:29:11;102214.13;;;21.85;100.00
13015;BME280;6573;57.696;11.950;2023-07-09T06:31:39;102219.19;;;21.96;100.00
13015;BME280;6573;57.696;11.950;2023-07-09T06:34:10;102213.31;;;22.14;100.00
13015;BME280;6573;57.696;11.950;2023-07-09T06:36:38;102217.09;;;22.07;100.00
13015;BME280;6573;57.696;11.950;2023-07-09T06:39:11;102208.31;;;22.02;100.00
13015;BME280;6573;57.696;11.950;2023-07-09T06:41:41;102211.75;;;22.36;100.00
13015;BME280;6573;57.696;11.950;2023-07-09T06:44:09;102203.28;;;22.51;100.00
13015;BME280;6573;57.696;11.950;2023-07-09T06:46:37;102211.03;;;22.60;100.00
13015;BME280;6573;57.696;11.950;2023-07-09T06:49:06;102209.59;;;22.79;100.00
13015;BME280;6573;57.696;11.950;2023-07-09T06:51:34;102181.16;;;22.43;100.00
13015;BME280;6573;57.696;11.950;2023-07-09T06:54:02;102221.06;;;22.55;100.00
13015;BME280;6573;57.696;11.950;2023-07-09T06:56:31;102207.91;;;22.75;100.00
13015;BME280;6573;57.696;11.950;2023-07-09T06:59:01;102211.31;;;22.80;100.00
13015;BME280;6573;57.696;11.950;2023-07-09T07:01:30;102209.97;;;22.95;100.00
13015;BME280;6573;57.696;11.950;2023-07-09T07:03:58;102168.78;;;22.68;100.00
13015;BME280;6573;57.696;11.950;2023-07-09T07:06:27;102221.97;;;22.83;100.00
13015;BME280;6573;57.696;11.950;2023-07-09T07:08:55;102216.13;;;22.98;100.00
13015;BME280;6573;57.696;11.950;2023-07-09T07:11:23;102222.56;;;22.93;100.00
13015;BME280;6573;57.696;11.950;2023-07-09T07:13:56;102224.72;;;23.09;100.00
13015;BME280;6573;57.696;11.950;2023-07-09T07:16:26;102207.50;;;23.16;100.00
13015;BME280;6573;57.696;11.950;2023-07-09T07:18:54;102210.06;;;23.19;100.00
13015;BME280;6573;57.696;11.950;2023-07-09T07:21:23;102220.13;;;23.41;100.00
13015;BME280;6573;57.696;11.950;2023-07-09T07:23:51;102219.69;;;23.53;100.00
13015;BME280;6573;57.696;11.950;2023-07-09T07:26:20;102211.38;;;23.34;100.00
13015;BME280;6573;57.696;11.950;2023-07-09T07:28:48;102220.03;;;23.44;100.00
13015;BME280;6573;57.696;11.950;2023-07-09T07:31:17;102212.75;;;23.72;100.00
13015;BME280;6573;57.696;11.950;2023-07-09T07:33:46;102209.31;;;23.93;100.00
13015;BME280;6573;57.696;11.950;2023-07-09T07:36:15;102211.94;;;23.95;100.00
13015;BME280;6573;57.696;11.950;2023-07-09T07:38:46;102211.56;;;24.05;100.00
13015;BME280;6573;57.696;11.950;2023-07-09T07:41:14;102210.44;;;24.59;100.00
13015;BME280;6573;57.696;11.950;2023-07-09T07:43:42;102195.34;;;25.64;100.00
13015;BME280;6573;57.696;11.950;2023-07-09T07:46:10;102194.53;;;26.60;100.00
13015;BME280;6573;57.696;11.950;2023-07-09T07:48:39;102182.28;;;26.53;100.00
13015;BME280;6573;57.696;11.950;2023-07-09T07:51:09;102190.88;;;26.61;100.00
13015;BME280;6573;57.696;11.950;2023-07-09T07:53:37;102188.91;;;27.55;100.00
13015;BME280;6573;57.696;11.950;2023-07-09T07:56:05;102195.41;;;28.19;100.00
13015;BME280;6573;57.696;11.950;2023-07-09T07:58:34;102180.78;;;28.55;100.00
13015;BME280;6573;57.696;11.950;2023-07-09T08:01:03;102169.59;;;28.45;100.00
13015;BME280;6573;57.696;11.950;2023-07-09T08:03:34;102181.41;;;28.11;100.00
13015;BME280;6573;57.696;11.950;2023-07-09T08:06:03;102183.97;;;28.94;100.00
13015;BME280;6573;57.696;11.950;2023-07-09T08:08:36;102180.13;;;28.67;100.00
13015;BME280;6573;57.696;11.950;2023-07-09T08:11:06;102175.06;;;28.76;100.00
13015;BME280;6573;57.696;11.950;2023-07-09T08:13:38;102176.81;;;28.62;100.00
13015;BME280;6573;57.696;11.950;2023-07-09T08:16:06;102175.78;;;28.32;100.00
13015;BME280;6573;57.696;11.950;2023-07-09T08:18:37;102183.84;;;28.16;100.00
13015;BME280;6573;57.696;11.950;2023-07-09T08:21:06;102182.38;;;27.93;100.00
13015;BME280;6573;57.696;11.950;2023-07-09T08:23:37;102183.69;;;28.03;100.00
13015;BME280;6573;57.696;11.950;2023-07-09T08:26:05;102179.56;;;28.45;100.00
13015;BME280;6573;57.696;11.950;2023-07-09T08:28:34;102172.22;;;28.47;100.00
13015;BME280;6573;57.696;11.950;2023-07-09T08:31:04;102161.06;;;28.53;99.86
13015;BME280;6573;57.696;11.950;2023-07-09T08:33:32;102173.22;;;28.29;99.70
13015;BME280;6573;57.696;11.950;2023-07-09T08:36:01;102176.63;;;27.99;100.00
13015;BME280;6573;57.696;11.950;2023-07-09T08:38:29;102174.47;;;27.89;100.00
13015;BME280;6573;57.696;11.950;2023-07-09T08:41:01;102169.97;;;27.89;100.00
13015;BME280;6573;57.696;11.950;2023-07-09T08:43:36;102176.63;;;28.16;100.00
13015;BME280;6573;57.696;11.950;2023-07-09T08:46:11;102174.41;;;28.07;99.69
13015;BME280;6573;57.696;11.950;2023-07-09T08:48:46;102182.53;;;27.90;99.46
13015;BME280;6573;57.696;11.950;2023-07-09T08:51:19;102181.44;;;27.77;99.65
13015;BME280;6573;57.696;11.950;2023-07-09T08:53:53;102180.97;;;27.52;100.00
13015;BME280;6573;57.696;11.950;2023-07-09T08:56:25;102148.22;;;27.58;100.00
13015;BME280;6573;57.696;11.950;2023-07-09T08:58:55;102173.13;;;27.97;100.00
13015;BME280;6573;57.696;11.950;2023-07-09T09:01:30;102176.75;;;27.64;100.00
13015;BME280;6573;57.696;11.950;2023-07-09T09:04:07;102182.25;;;27.62;100.00
13015;BME280;6573;57.696;11.950;2023-07-09T09:06:42;102179.66;;;27.76;100.00
13015;BME280;6573;57.696;11.950;2023-07-09T09:09:21;102181.94;;;27.68;100.00
13015;BME280;6573;57.696;11.950;2023-07-09T09:11:59;102177.78;;;27.44;100.00
13015;BME280;6573;57.696;11.950;2023-07-09T09:14:34;102181.13;;;27.49;100.00
13015;BME280;6573;57.696;11.950;2023-07-09T09:17:10;102176.00;;;27.26;100.00
13015;BME280;6573;57.696;11.950;2023-07-09T09:19:46;102184.25;;;27.23;100.00
13015;BME280;6573;57.696;11.950;2023-07-09T09:22:20;102186.88;;;26.88;100.00
13015;BME280;6573;57.696;11.950;2023-07-09T09:24:58;102187.53;;;26.93;100.00
13015;BME280;6573;57.696;11.950;2023-07-09T09:27:31;102190.53;;;26.87;100.00
13015;BME280;6573;57.696;11.950;2023-07-09T09:30:00;102181.16;;;26.57;100.00
13015;BME280;6573;57.696;11.950;2023-07-09T09:32:43;102187.09;;;26.65;100.00
13015;BME280;6573;57.696;11.950;2023-07-09T09:35:12;102169.72;;;26.52;100.00
13015;BME280;6573;57.696;11.950;2023-07-09T09:37:49;102191.69;;;26.63;100.00
13015;BME280;6573;57.696;11.950;2023-07-09T09:40:18;102188.09;;;26.63;100.00
13015;BME280;6573;57.696;11.950;2023-07-09T09:42:51;102194.44;;;26.43;100.00
13015;BME280;6573;57.696;11.950;2023-07-09T09:45:24;102196.56;;;26.55;100.00
13015;BME280;6573;57.696;11.950;2023-07-09T09:47:59;102190.28;;;26.36;100.00
13015;BME280;6573;57.696;11.950;2023-07-09T09:50:32;102204.72;;;26.35;100.00
13015;BME280;6573;57.696;11.950;2023-07-09T09:53:00;102198.47;;;26.53;100.00
13015;BME280;6573;57.696;11.950;2023-07-09T09:55:31;102199.31;;;26.35;100.00
13015;BME280;6573;57.696;11.950;2023-07-09T09:58:01;102212.22;;;26.28;100.00
13015;BME280;6573;57.696;11.950;2023-07-09T10:00:32;102205.03;;;26.29;100.00
13015;BME280;6573;57.696;11.950;2023-07-09T10:03:02;102204.41;;;26.22;100.00
13015;BME280;6573;57.696;11.950;2023-07-09T10:05:41;102210.84;;;25.80;100.00
13015;BME280;6573;57.696;11.950;2023-07-09T10:08:16;102211.72;;;25.80;100.00
13015;BME280;6573;57.696;11.950;2023-07-09T10:10:51;102177.69;;;25.78;100.00
13015;BME280;6573;57.696;11.950;2023-07-09T10:13:28;102186.41;;;25.83;100.00
13015;BME280;6573;57.696;11.950;2023-07-09T10:16:03;102188.16;;;26.04;100.00
13015;BME280;6573;57.696;11.950;2023-07-09T10:18:41;102160.53;;;25.79;100.00
13015;BME280;6573;57.696;11.950;2023-07-09T10:21:17;102201.41;;;25.90;100.00
13015;BME280;6573;57.696;11.950;2023-07-09T10:23:57;102201.66;;;25.84;100.00
13015;BME280;6573;57.696;11.950;2023-07-09T10:26:36;102199.09;;;25.81;100.00
13015;BME280;6573;57.696;11.950;2023-07-09T10:29:42;102199.22;;;25.98;100.00
13015;BME280;6573;57.696;11.950;2023-07-09T10:32:34;102206.00;;;25.67;100.00
13015;BME280;6573;57.696;11.950;2023-07-09T10:35:12;102200.84;;;25.61;100.00
13015;BME280;6573;57.696;11.950;2023-07-09T10:38:04;102198.41;;;25.55;100.00
13015;BME280;6573;57.696;11.950;2023-07-09T10:40:39;102196.13;;;25.87;100.00
13015;BME280;6573;57.696;11.950;2023-07-09T10:43:17;102194.38;;;25.86;100.00
13015;BME280;6573;57.696;11.950;2023-07-09T10:45:55;102192.63;;;25.85;100.00
13015;BME280;6573;57.696;11.950;2023-07-09T10:48:32;102198.59;;;26.31;100.00
13015;BME280;6573;57.696;11.950;2023-07-09T10:51:02;102186.94;;;26.68;100.00
13015;BME280;6573;57.696;11.950;2023-07-09T10:53:36;102194.38;;;27.01;100.00
13015;BME280;6573;57.696;11.950;2023-07-09T10:56:10;102192.63;;;26.99;100.00
13015;BME280;6573;57.696;11.950;2023-07-09T10:58:47;102191.72;;;27.18;100.00
13015;BME280;6573;57.696;11.950;2023-07-09T11:01:28;102180.13;;;27.16;100.00
13015;BME280;6573;57.696;11.950;2023-07-09T11:04:02;102193.34;;;26.47;100.00
13015;BME280;6573;57.696;11.950;2023-07-09T11:06:36;102189.53;;;27.07;100.00
13015;BME280;6573;57.696;11.950;2023-07-09T11:09:13;102191.09;;;27.30;100.00
13015;BME280;6573;57.696;11.950;2023-07-09T11:11:45;102154.91;;;26.61;100.00
13015;BME280;6573;57.696;11.950;2023-07-09T11:14:23;102171.94;;;26.81;100.00
13015;BME280;6573;57.696;11.950;2023-07-09T11:16:55;102173.97;;;26.76;100.00
13015;BME280;6573;57.696;11.950;2023-07-09T11:19:24;102166.78;;;26.75;100.00
13015;BME280;6573;57.696;11.950;2023-07-09T11:22:03;102174.97;;;26.92;100.00
13015;BME280;6573;57.696;11.950;2023-07-09T11:24:36;102164.16;;;26.92;100.00
13015;BME280;6573;57.696;11.950;2023-07-09T11:27:20;102164.03;;;26.95;100.00
13015;BME280;6573;57.696;11.950;2023-07-09T11:29:56;102160.41;;;26.78;100.00
13015;BME280;6573;57.696;11.950;2023-07-09T11:32:27;102153.63;;;27.05;100.00
13015;BME280;6573;57.696;11.950;2023-07-09T11:35:06;102156.28;;;26.88;100.00
13015;BME280;6573;57.696;11.950;2023-07-09T11:37:44;102152.22;;;26.79;100.00
13015;BME280;6573;57.696;11.950;2023-07-09T11:40:15;102119.06;;;27.12;100.00
13015;BME280;6573;57.696;11.950;2023-07-09T11:42:51;102134.94;;;27.01;100.00
13015;BME280;6573;57.696;11.950;2023-07-09T11:45:22;102152.34;;;27.65;100.00
13015;BME280;6573;57.696;11.950;2023-07-09T11:47:58;102147.53;;;27.36;100.00
13015;BME280;6573;57.696;11.950;2023-07-09T11:50:35;102148.66;;;27.49;100.00
13015;BME280;6573;57.696;11.950;2023-07-09T11:53:22;102145.34;;;27.44;100.00
13015;BME280;6573;57.696;11.950;2023-07-09T11:55:53;102148.75;;;27.65;100.00
13015;BME280;6573;57.696;11.950;2023-07-09T11:58:22;102144.59;;;27.75;100.00
13015;BME280;6573;57.696;11.950;2023-07-09T12:00:52;102138.66;;;27.68;100.00
13015;BME280;6573;57.696;11.950;2023-07-09T12:03:25;102140.00;;;27.59;100.00
13015;BME280;6573;57.696;11.950;2023-07-09T12:06:00;102133.50;;;27.96;100.00
13015;BME280;6573;57.696;11.950;2023-07-09T12:08:33;102137.06;;;28.14;100.00
13015;BME280;6573;57.696;11.950;2023-07-09T12:11:02;102144.97;;;27.84;100.00
13015;BME280;6573;57.696;11.950;2023-07-09T12:13:36;102138.13;;;27.94;100.00
13015;BME280;6573;57.696;11.950;2023-07-09T12:16:20;102126.16;;;28.15;100.00
13015;BME280;6573;57.696;11.950;2023-07-09T12:18:50;102130.59;;;28.16;100.00
13015;BME280;6573;57.696;11.950;2023-07-09T12:21:19;102128.31;;;28.09;100.00
13015;BME280;6573;57.696;11.950;2023-07-09T12:23:47;102122.66;;;27.96;100.00
13015;BME280;6573;57.696;11.950;2023-07-09T12:26:18;102116.47;;;27.94;100.00
13015;BME280;6573;57.696;11.950;2023-07-09T12:28:51;102120.63;;;28.01;100.00
13015;BME280;6573;57.696;11.950;2023-07-09T12:31:25;102120.31;;;27.90;100.00
13015;BME280;6573;57.696;11.950;2023-07-09T12:33:57;102118.50;;;27.91;100.00
13015;BME280;6573;57.696;11.950;2023-07-09T12:36:27;102123.34;;;27.84;100.00
13015;BME280;6573;57.696;11.950;2023-07-09T12:38:59;102100.50;;;27.90;100.00
13015;BME280;6573;57.696;11.950;2023-07-09T12:41:35;102109.81;;;28.01;100.00
13015;BME280;6573;57.696;11.950;2023-07-09T12:44:05;102106.66;;;28.09;100.00
13015;BME280;6573;57.696;11.950;2023-07-09T12:46:34;102104.59;;;28.14;100.00
13015;BME280;6573;57.696;11.950;2023-07-09T12:49:05;102114.88;;;28.07;100.00
13015;BME280;6573;57.696;11.950;2023-07-09T12:51:37;102107.09;;;28.01;100.00
13015;BME280;6573;57.696;11.950;2023-07-09T12:54:13;102102.94;;;27.94;100.00
13015;BME280;6573;57.696;11.950;2023-07-09T12:56:45;102107.91;;;28.03;100.00
13015;BME280;6573;57.696;11.950;2023-07-09T12:59:18;102099.72;;;28.20;100.00
13015;BME280;6573;57.696;11.950;2023-07-09T13:01:55;102109.16;;;28.76;100.00